Time;durP1;ratioP1;P1;durP2;ratioP2;P2;SDS_P1;SDS_P2;PMS_P1;PMS_P2;Temp;Humidity;BMP_temperature;BMP_pressure;BME280_temperature;BME280_humidity;BME280_pressure;Samples;Min_cycle;Max_cycle;Signal;HPM_P1;HPM_P2
2024/05/02 00:00:23;;;;;;;4.93;2.30;;;20.80;5.00;;;;;;5425266;26;20289;-65
2024/05/02 00:02:49;;;;;;;6.15;3.05;;;20.80;5.00;;;;;;5430390;26;20709;-66
2024/05/02 00:05:14;;;;;;;6.13;2.55;;;20.80;5.00;;;;;;5421539;26;20282;-67
2024/05/02 00:07:40;;;;;;;4.32;2.38;;;20.70;5.00;;;;;;5397258;26;20645;-67
2024/05/02 00:10:06;;;;;;;7.75;2.55;;;20.70;5.00;;;;;;5395390;26;20232;-67
2024/05/02 00:12:31;;;;;;;3.13;1.92;;;20.60;5.00;;;;;;5426314;26;20279;-66
2024/05/02 00:14:56;;;;;;;6.40;2.95;;;20.50;5.00;;;;;;5429297;26;20229;-67
2024/05/02 00:17:22;;;;;;;5.22;2.25;;;20.40;5.00;;;;;;5428119;26;20227;-66
2024/05/02 00:19:47;;;;;;;3.90;2.30;;;20.40;5.00;;;;;;5394721;26;20272;-68
2024/05/02 00:22:13;;;;;;;6.70;2.75;;;20.30;5.00;;;;;;5428769;26;20280;-67
2024/05/02 00:24:38;;;;;;;3.95;2.50;;;20.20;5.00;;;;;;5428984;26;20233;-67
2024/05/02 00:27:04;;;;;;;7.07;2.88;;;20.20;5.00;;;;;;5428099;26;20239;-67
2024/05/02 00:29:29;;;;;;;7.45;2.65;;;20.20;5.00;;;;;;5393760;26;20247;-66
2024/05/02 00:31:55;;;;;;;8.77;2.58;;;20.10;5.00;;;;;;5429824;26;20888;-66
2024/05/02 00:34:20;;;;;;;9.70;2.75;;;20.00;5.00;;;;;;5427569;26;20230;-66
2024/05/02 00:36:46;;;;;;;7.80;2.50;;;20.10;5.00;;;;;;5426580;26;20268;-67
2024/05/02 00:39:11;;;;;;;4.35;2.72;;;20.00;5.00;;;;;;5429125;26;20233;-66
2024/05/02 00:41:37;;;;;;;5.57;2.92;;;19.90;5.00;;;;;;5426620;26;20227;-65
2024/05/02 00:44:02;;;;;;;5.80;2.90;;;19.50;5.00;;;;;;5427638;26;20686;-67
2024/05/02 00:46:28;;;;;;;7.40;2.95;;;19.90;5.00;;;;;;5396530;26;20321;-66
2024/05/02 00:48:54;;;;;;;4.20;3.05;;;19.70;5.00;;;;;;5425666;26;20707;-66
2024/05/02 00:51:20;;;;;;;8.63;2.80;;;19.70;5.00;;;;;;5431449;26;20226;-66
2024/05/02 00:53:48;;;;;;;3.63;2.90;;;19.60;5.00;;;;;;5432063;26;20623;-66
2024/05/02 00:56:15;;;;;;;4.93;2.65;;;19.60;5.00;;;;;;5397790;26;20238;-67
2024/05/02 00:58:41;;;;;;;7.30;2.90;;;19.40;5.00;;;;;;5431816;26;20879;-67
2024/05/02 01:01:06;;;;;;;4.68;2.80;;;19.60;5.00;;;;;;5431779;26;20907;-66
2024/05/02 01:03:32;;;;;;;5.45;2.97;;;19.60;5.00;;;;;;5397931;26;20296;-65
2024/05/02 01:05:58;;;;;;;3.30;3.00;;;19.40;5.00;;;;;;5431831;26;20311;-66
2024/05/02 01:08:23;;;;;;;3.65;2.78;;;19.30;5.00;;;;;;5446395;26;20289;-67
2024/05/02 01:10:50;;;;;;;8.95;3.25;;;19.30;5.00;;;;;;5433051;26;20226;-67
2024/05/02 01:13:15;;;;;;;5.10;2.80;;;19.30;5.00;;;;;;5430322;26;20227;-68
2024/05/02 01:15:41;;;;;;;8.63;3.55;;;19.20;5.00;;;;;;5430521;26;20221;-66
2024/05/02 01:18:06;;;;;;;10.85;3.15;;;19.10;5.00;;;;;;5433026;26;20280;-66
2024/05/02 01:20:33;;;;;;;4.13;2.70;;;19.10;5.00;;;;;;5429353;26;20703;-66
2024/05/02 01:22:58;;;;;;;6.57;3.03;;;19.00;5.00;;;;;;5431340;26;20694;-66
2024/05/02 01:25:24;;;;;;;3.45;2.50;;;18.90;5.00;;;;;;5413793;26;20262;-67
2024/05/02 01:27:50;;;;;;;6.63;2.90;;;18.90;5.00;;;;;;5382129;26;20315;-66
2024/05/02 01:30:15;;;;;;;5.45;3.10;;;18.90;5.00;;;;;;5382116;26;21181;-66
2024/05/02 01:32:41;;;;;;;3.70;2.92;;;18.90;5.00;;;;;;5413643;26;20227;-66
2024/05/02 01:35:06;;;;;;;3.75;3.28;;;18.80;5.00;;;;;;5413520;26;20331;-66
2024/05/02 01:37:32;;;;;;;5.28;3.08;;;18.80;5.00;;;;;;5413722;26;20219;-66
2024/05/02 01:39:57;;;;;;;7.95;3.00;;;18.80;5.00;;;;;;5413267;26;20347;-67
2024/05/02 01:42:23;;;;;;;6.57;3.28;;;18.70;5.00;;;;;;5382322;26;20257;-67
2024/05/02 01:44:48;;;;;;;3.85;2.83;;;18.70;5.00;;;;;;5381913;26;20235;-66
2024/05/02 01:47:14;;;;;;;6.03;3.15;;;18.70;5.00;;;;;;5382195;26;20718;-66
2024/05/02 01:49:39;;;;;;;3.63;2.97;;;18.70;5.00;;;;;;5413396;26;20285;-66
2024/05/02 01:52:05;;;;;;;4.35;3.35;;;18.70;5.00;;;;;;5413371;26;21238;-66
2024/05/02 01:54:30;;;;;;;5.70;2.90;;;18.60;5.00;;;;;;5413219;26;20227;-66
2024/05/02 01:56:56;;;;;;;6.00;3.10;;;18.60;5.00;;;;;;5413401;26;20222;-66
2024/05/02 01:59:21;;;;;;;7.40;2.83;;;18.60;5.00;;;;;;5381842;26;20627;-67
2024/05/02 02:01:47;;;;;;;5.55;3.05;;;18.60;5.00;;;;;;5413897;26;20296;-67
2024/05/02 02:04:14;;;;;;;5.03;3.20;;;18.60;5.00;;;;;;5413295;26;20215;-66
2024/05/02 02:06:40;;;;;;;3.53;2.53;;;18.50;5.00;;;;;;5413094;26;20290;-67
2024/05/02 02:09:06;;;;;;;3.35;3.00;;;18.50;5.00;;;;;;5412820;26;20235;-66
2024/05/02 02:11:31;;;;;;;6.28;2.90;;;18.50;5.00;;;;;;5413311;26;20231;-66
2024/05/02 02:13:57;;;;;;;5.28;2.97;;;18.40;5.00;;;;;;5413102;26;20269;-66
2024/05/02 02:16:22;;;;;;;6.32;3.00;;;18.40;5.00;;;;;;5413043;26;20230;-66
2024/05/02 02:18:48;;;;;;;5.78;2.95;;;18.40;5.00;;;;;;5381429;26;20234;-67
2024/05/02 02:21:13;;;;;;;4.07;3.05;;;18.30;5.00;;;;;;5412344;26;20707;-66
2024/05/02 02:23:45;;;;;;;4.97;2.90;;;18.30;5.00;;;;;;5380141;26;20257;-67
2024/05/02 02:26:11;;;;;;;6.07;3.03;;;18.20;5.00;;;;;;5412190;26;20754;-67
2024/05/02 02:28:36;;;;;;;8.50;3.03;;;18.30;5.00;;;;;;5412888;26;20261;-66
2024/05/02 02:31:02;;;;;;;6.03;3.00;;;18.20;5.00;;;;;;5412787;26;20264;-67
2024/05/02 02:33:27;;;;;;;6.85;3.13;;;18.20;5.00;;;;;;5412697;26;20215;-67
2024/05/02 02:35:53;;;;;;;9.75;3.20;;;18.10;5.00;;;;;;5412648;26;20336;-66
2024/05/02 02:38:18;;;;;;;3.97;3.00;;;18.10;5.00;;;;;;5412488;26;20265;-68
2024/05/02 02:40:44;;;;;;;3.78;2.75;;;18.10;5.00;;;;;;5381396;26;20231;-67
2024/05/02 02:43:10;;;;;;;10.73;3.75;;;18.20;5.00;;;;;;5412882;26;20223;-66
2024/05/02 02:45:36;;;;;;;4.55;3.47;;;18.10;5.00;;;;;;5412498;26;20861;-66
2024/05/02 02:48:02;;;;;;;8.68;3.13;;;18.10;5.00;;;;;;5412814;26;20269;-66
2024/05/02 02:50:27;;;;;;;6.53;3.72;;;18.00;5.00;;;;;;5412359;26;20335;-66
2024/05/02 02:52:53;;;;;;;4.43;3.28;;;18.00;5.00;;;;;;5412843;26;20269;-66
2024/05/02 02:55:18;;;;;;;7.20;3.40;;;17.90;5.00;;;;;;5412674;26;20753;-67
2024/05/02 02:57:44;;;;;;;6.05;2.80;;;17.80;5.00;;;;;;5412820;26;20219;-67
2024/05/02 03:00:10;;;;;;;4.97;3.15;;;17.70;5.00;;;;;;5410458;26;20235;-67
2024/05/02 03:02:35;;;;;;;5.15;3.20;;;17.70;5.00;;;;;;5412500;26;20268;-66
2024/05/02 03:05:01;;;;;;;5.05;3.30;;;17.60;5.00;;;;;;5412197;26;20309;-66
2024/05/02 03:07:27;;;;;;;7.53;3.22;;;17.60;5.00;;;;;;5412645;26;20746;-66
2024/05/02 03:09:52;;;;;;;9.55;3.42;;;17.60;5.00;;;;;;5412225;26;20324;-66
2024/05/02 03:12:18;;;;;;;5.57;3.28;;;17.40;5.00;;;;;;5411688;26;20231;-67
2024/05/02 03:14:43;;;;;;;6.13;3.38;;;17.40;5.00;;;;;;5412856;26;20227;-66
2024/05/02 03:17:10;;;;;;;6.50;3.63;;;17.40;5.00;;;;;;5413236;26;20305;-66
2024/05/02 03:19:35;;;;;;;5.25;3.45;;;17.30;5.00;;;;;;5431911;21;20258;-69
2024/05/02 03:22:01;;;;;;;4.53;3.22;;;17.30;5.00;;;;;;4692151;26;10000762;-68
2024/05/02 03:24:27;;;;;;;6.57;3.85;;;17.20;5.00;;;;;;5432106;26;20277;-69
2024/05/02 03:26:52;;;;;;;6.25;3.40;;;17.20;5.00;;;;;;5447843;26;20327;-69
2024/05/02 03:29:18;;;;;;;8.52;3.47;;;17.20;5.00;;;;;;5454958;26;20232;-69
2024/05/02 03:31:43;;;;;;;6.47;3.38;;;17.20;5.00;;;;;;5484231;26;20228;-69
2024/05/02 03:34:09;;;;;;;4.05;3.50;;;17.20;5.00;;;;;;5484130;26;20268;-69
2024/05/02 03:36:34;;;;;;;6.18;3.47;;;17.20;5.00;;;;;;5483994;26;20220;-69
2024/05/02 03:39:00;;;;;;;5.88;3.28;;;17.20;5.00;;;;;;5484067;26;20340;-70
2024/05/02 03:41:25;;;;;;;6.07;3.58;;;17.10;5.00;;;;;;5483889;26;20263;-69
2024/05/02 03:43:50;;;;;;;5.03;3.70;;;17.10;5.00;;;;;;5483992;26;20217;-69
2024/05/02 03:46:16;;;;;;;5.55;4.22;;;17.20;5.00;;;;;;5483561;26;20216;-70
2024/05/02 03:48:45;;;;;;;4.45;3.50;;;17.00;5.00;;;;;;5483838;26;20292;-69
2024/05/02 03:51:11;;;;;;;6.40;3.38;;;17.00;5.00;;;;;;5484126;26;20615;-70
2024/05/02 03:53:36;;;;;;;4.30;3.58;;;17.00;5.00;;;;;;5483765;26;20564;-70
2024/05/02 03:56:02;;;;;;;6.57;3.38;;;17.00;5.00;;;;;;5483356;26;20294;-70
2024/05/02 03:58:28;;;;;;;3.83;3.42;;;16.90;5.00;;;;;;5483338;26;20232;-69
2024/05/02 04:00:53;;;;;;;8.75;3.97;;;16.90;5.00;;;;;;5483605;26;20267;-70
2024/05/02 04:03:18;;;;;;;6.60;3.40;;;16.80;5.00;;;;;;5483672;26;20286;-69
2024/05/02 04:05:44;;;;;;;3.80;3.50;;;16.80;5.00;;;;;;5483493;26;20689;-70
2024/05/02 04:08:10;;;;;;;5.40;3.70;;;16.70;5.00;;;;;;5483735;26;20312;-69
2024/05/02 04:10:38;;;;;;;5.15;3.80;;;16.70;5.00;;;;;;5483639;26;20431;-69
2024/05/02 04:13:04;;;;;;;5.60;3.90;;;16.70;5.00;;;;;;5483659;26;20225;-69
2024/05/02 04:15:29;;;;;;;8.73;4.28;;;16.70;5.00;;;;;;5483104;26;20220;-70
2024/05/02 04:17:56;;;;;;;5.18;4.25;;;16.60;5.00;;;;;;5483558;26;20225;-70
2024/05/02 04:20:21;;;;;;;5.18;4.30;;;16.60;5.00;;;;;;5483105;26;20237;-70
2024/05/02 04:22:47;;;;;;;6.57;3.95;;;16.50;5.00;;;;;;5483330;26;20552;-69
2024/05/02 04:25:12;;;;;;;4.95;3.97;;;16.60;5.00;;;;;;5484496;26;20696;-70
2024/05/02 04:27:38;;;;;;;5.03;3.78;;;16.50;5.00;;;;;;5486815;26;20304;-69
2024/05/02 04:30:03;;;;;;;6.82;4.15;;;16.50;5.00;;;;;;5486796;26;20539;-70
2024/05/02 04:32:29;;;;;;;9.63;4.90;;;16.50;5.00;;;;;;5486803;26;20329;-69
2024/05/02 04:34:54;;;;;;;6.57;3.38;;;16.50;5.00;;;;;;5486809;26;20284;-70
2024/05/02 04:37:20;;;;;;;5.60;3.60;;;16.50;5.00;;;;;;5486706;26;20262;-69
2024/05/02 04:39:47;;;;;;;4.82;3.65;;;16.50;5.00;;;;;;5486912;26;20225;-70
2024/05/02 04:42:13;;;;;;;10.02;4.35;;;16.40;5.00;;;;;;5486867;26;20684;-69
2024/05/02 04:44:39;;;;;;;8.32;3.97;;;16.50;5.00;;;;;;5486205;26;20296;-70
2024/05/02 04:47:04;;;;;;;6.35;3.85;;;16.50;5.00;;;;;;5486985;26;20271;-70
2024/05/02 04:49:30;;;;;;;8.00;4.22;;;16.50;5.00;;;;;;5486497;26;20263;-69
2024/05/02 04:51:56;;;;;;;6.78;4.22;;;16.60;5.00;;;;;;5486854;26;20621;-69
2024/05/02 04:54:21;;;;;;;5.72;3.97;;;16.60;5.00;;;;;;5486631;26;20224;-68
2024/05/02 04:56:46;;;;;;;7.38;4.07;;;16.70;5.00;;;;;;5486589;26;20221;-69
2024/05/02 04:59:12;;;;;;;5.55;4.20;;;16.80;5.00;;;;;;5486254;26;20225;-70
2024/05/02 05:01:39;;;;;;;7.38;3.17;;;16.90;5.00;;;;;;5486460;26;20554;-69
2024/05/02 05:04:04;;;;;;;4.90;3.42;;;17.00;5.00;;;;;;5486592;26;20629;-69
2024/05/02 05:06:30;;;;;;;5.57;3.17;;;17.00;5.00;;;;;;5485931;26;20221;-70
2024/05/02 05:08:56;;;;;;;8.57;3.40;;;17.30;5.00;;;;;;5486540;26;20272;-69
2024/05/02 05:11:21;;;;;;;5.28;3.50;;;17.10;5.00;;;;;;5454312;26;20251;-69
2024/05/02 05:13:47;;;;;;;7.85;3.80;;;17.30;5.00;;;;;;5454614;26;20260;-69
2024/05/02 05:16:13;;;;;;;3.83;3.28;;;17.30;5.00;;;;;;5485886;26;20220;-68
2024/05/02 05:18:38;;;;;;;7.03;3.30;;;17.40;5.00;;;;;;5486575;26;20257;-69
2024/05/02 05:21:04;;;;;;;4.95;3.20;;;17.40;5.00;;;;;;5486675;26;20376;-69
2024/05/02 05:23:30;;;;;;;6.72;3.60;;;17.50;5.00;;;;;;5484650;26;20225;-69
2024/05/02 05:25:55;;;;;;;7.65;3.50;;;17.60;5.00;;;;;;5518910;26;20315;-69
2024/05/02 05:28:21;;;;;;;6.35;3.20;;;17.60;5.00;;;;;;5518919;26;20253;-69
2024/05/02 05:30:46;;;;;;;8.57;3.20;;;17.70;5.00;;;;;;5518482;26;20232;-69
2024/05/02 05:33:12;;;;;;;7.82;3.92;;;17.60;5.00;;;;;;5518876;26;20278;-69
2024/05/02 05:35:38;;;;;;;4.40;2.92;;;17.70;5.00;;;;;;5517731;26;21099;-69
2024/05/02 05:38:06;;;;;;;6.90;3.38;;;17.90;5.00;;;;;;5518992;26;20323;-69
2024/05/02 05:40:31;;;;;;;5.25;3.00;;;17.80;5.00;;;;;;5518939;26;20386;-68
2024/05/02 05:42:57;;;;;;;7.45;3.13;;;17.90;5.00;;;;;;5519174;26;20255;-69
2024/05/02 05:45:22;;;;;;;8.90;3.13;;;17.90;5.00;;;;;;5518316;26;20212;-69
2024/05/02 05:47:48;;;;;;;9.02;3.30;;;17.90;5.00;;;;;;5518531;26;21178;-68
2024/05/02 05:50:13;;;;;;;6.20;3.20;;;17.90;5.00;;;;;;5518285;26;20227;-69
2024/05/02 05:52:38;;;;;;;4.65;3.05;;;18.10;5.00;;;;;;5518230;26;20227;-69
2024/05/02 05:55:05;;;;;;;5.75;3.00;;;18.00;5.00;;;;;;5486423;26;20223;-69
2024/05/02 05:57:31;;;;;;;3.67;2.92;;;18.10;5.00;;;;;;5518474;26;20250;-70
2024/05/02 05:59:56;;;;;;;4.45;3.25;;;18.10;5.00;;;;;;5518151;26;20279;-68
2024/05/02 06:02:21;;;;;;;3.95;2.90;;;18.30;5.00;;;;;;5518836;26;20215;-69
2024/05/02 06:04:47;;;;;;;6.88;3.05;;;18.30;5.00;;;;;;5518125;26;20223;-68
2024/05/02 06:07:12;;;;;;;4.13;3.28;;;18.30;5.00;;;;;;5518207;26;20211;-68
2024/05/02 06:09:38;;;;;;;5.07;3.10;;;18.40;5.00;;;;;;5517881;26;20227;-69
2024/05/02 06:12:03;;;;;;;5.70;3.88;;;18.50;5.00;;;;;;5518568;26;20220;-68
2024/05/02 06:14:29;;;;;;;7.43;3.40;;;18.70;5.00;;;;;;5517593;26;20232;-69
2024/05/02 06:16:54;;;;;;;13.45;3.45;;;18.80;5.00;;;;;;5517799;26;20227;-68
2024/05/02 06:19:20;;;;;;;5.05;3.25;;;19.00;5.00;;;;;;5517849;26;20253;-70
2024/05/02 06:21:45;;;;;;;5.32;3.20;;;19.20;5.00;;;;;;5518204;26;20888;-70
2024/05/02 06:24:11;;;;;;;3.45;2.60;;;19.30;5.00;;;;;;5129248;26;10000350;-69
2024/05/02 06:26:36;;;;;;;5.78;2.88;;;19.50;5.00;;;;;;5449047;26;20272;-68
2024/05/02 06:29:02;;;;;;;10.32;3.28;;;19.60;5.00;;;;;;5481346;26;20208;-69
2024/05/02 06:31:27;;;;;;;6.63;3.38;;;19.80;5.00;;;;;;5481356;26;20260;-69
2024/05/02 06:33:54;;;;;;;5.30;3.15;;;19.90;5.00;;;;;;5481316;26;20220;-70
2024/05/02 06:36:20;;;;;;;5.30;3.13;;;20.00;5.00;;;;;;5480451;26;20267;-69
2024/05/02 06:38:45;;;;;;;6.78;3.20;;;20.20;5.00;;;;;;5480955;26;20594;-69
2024/05/02 06:41:10;;;;;;;12.15;3.10;;;20.30;5.00;;;;;;5481627;26;20282;-69
2024/05/02 06:43:36;;;;;;;5.40;3.10;;;20.50;5.00;;;;;;5481896;26;20212;-69
2024/05/02 06:46:05;;;;;;;5.00;2.83;;;20.60;5.00;;;;;;5481618;26;20934;-69
2024/05/02 06:48:31;;;;;;;5.50;2.70;;;20.70;5.00;;;;;;5480879;26;20224;-68
2024/05/02 06:50:57;;;;;;;7.13;3.08;;;20.80;5.00;;;;;;5449589;26;20232;-69
2024/05/02 06:53:22;;;;;;;5.85;3.13;;;20.90;5.00;;;;;;5449322;26;20809;-70
2024/05/02 06:55:48;;;;;;;5.25;2.83;;;21.00;5.00;;;;;;5481338;26;20245;-70
2024/05/02 06:58:13;;;;;;;12.05;3.30;;;21.10;5.00;;;;;;5482789;26;20278;-69
2024/05/02 07:00:40;;;;;;;5.45;3.35;;;21.30;5.00;;;;;;5480702;26;20240;-70
2024/05/02 07:03:06;;;;;;;6.13;3.60;;;21.30;5.00;;;;;;5480742;26;20240;-69
2024/05/02 07:05:32;;;;;;;9.27;3.55;;;21.30;5.00;;;;;;5481996;26;20280;-70
2024/05/02 07:07:57;;;;;;;11.60;3.15;;;21.40;5.00;;;;;;5483910;26;20220;-70
2024/05/02 07:10:23;;;;;;;3.92;2.88;;;21.50;5.00;;;;;;5484443;26;20228;-70
2024/05/02 07:12:49;;;;;;;4.13;2.75;;;21.60;5.00;;;;;;5484572;26;20225;-69
2024/05/02 07:15:15;;;;;;;8.32;3.10;;;21.80;5.00;;;;;;5484453;26;20225;-70
2024/05/02 07:17:41;;;;;;;5.43;3.70;;;21.90;5.00;;;;;;5484670;26;20224;-71
2024/05/02 07:20:07;;;;;;;4.03;2.95;;;22.10;5.00;;;;;;5483994;26;20279;-70
2024/05/02 07:22:35;;;;;;;11.05;3.70;;;22.10;5.00;;;;;;5484210;26;20267;-70
2024/05/02 07:25:03;;;;;;;6.78;2.75;;;22.20;5.00;;;;;;5484474;26;20319;-70
2024/05/02 07:27:29;;;;;;;7.82;3.38;;;22.30;5.00;;;;;;5484388;26;20700;-70
2024/05/02 07:29:54;;;;;;;6.95;3.25;;;22.40;5.00;;;;;;5483984;26;20224;-70
2024/05/02 07:32:20;;;;;;;6.82;3.05;;;22.50;5.00;;;;;;5484341;26;20266;-70
2024/05/02 07:34:45;;;;;;;4.00;3.50;;;22.60;5.00;;;;;;5484308;26;21088;-70
2024/05/02 07:37:11;;;;;;;8.93;3.20;;;22.60;5.00;;;;;;5484067;26;20217;-70
2024/05/02 07:39:36;;;;;;;7.25;3.45;;;22.60;5.00;;;;;;5451989;26;20610;-70
2024/05/02 07:42:03;;;;;;;6.30;3.08;;;22.70;5.00;;;;;;5484170;26;20998;-70
2024/05/02 07:44:28;;;;;;;3.25;2.95;;;22.80;5.00;;;;;;5484170;26;20623;-70
2024/05/02 07:46:54;;;;;;;5.47;2.88;;;23.00;5.00;;;;;;5483743;26;20224;-70
2024/05/02 07:49:20;;;;;;;6.63;3.03;;;23.10;5.00;;;;;;5484405;26;20248;-70
2024/05/02 07:51:45;;;;;;;5.70;3.20;;;23.30;5.00;;;;;;5483894;26;20255;-70
2024/05/02 07:54:11;;;;;;;6.50;3.05;;;23.40;5.00;;;;;;5483935;26;20263;-70
2024/05/02 07:56:36;;;;;;;6.30;3.00;;;23.60;5.00;;;;;;5483382;26;20284;-69
2024/05/02 07:59:02;;;;;;;8.20;3.35;;;23.70;5.00;;;;;;5452837;26;20239;-70
2024/05/02 08:01:27;;;;;;;6.45;3.45;;;23.70;5.00;;;;;;5487455;26;20247;-71
2024/05/02 08:03:53;;;;;;;8.95;3.05;;;23.80;5.00;;;;;;5455399;26;20221;-69
2024/05/02 08:06:18;;;;;;;8.07;3.90;;;23.90;5.00;;;;;;5486976;26;20276;-70
2024/05/02 08:08:44;;;;;;;7.22;3.22;;;23.90;5.00;;;;;;5453502;26;20297;-70
2024/05/02 08:11:10;;;;;;;7.63;3.17;;;24.00;5.00;;;;;;5485647;26;20335;-70
2024/05/02 08:13:36;;;;;;;6.97;3.70;;;24.00;5.00;;;;;;5486237;26;20224;-71
2024/05/02 08:16:01;;;;;;;6.82;3.75;;;24.00;5.00;;;;;;5486717;26;20217;-69
2024/05/02 08:18:29;;;;;;;5.00;3.60;;;24.10;5.00;;;;;;5455031;26;20644;-70
2024/05/02 08:20:54;;;;;;;5.70;3.45;;;24.20;5.00;;;;;;5486230;26;20240;-71
2024/05/02 08:23:20;;;;;;;9.32;3.55;;;24.30;5.00;;;;;;5487199;26;20220;-70
2024/05/02 08:25:45;;;;;;;5.78;3.58;;;24.30;5.00;;;;;;5486638;26;20266;-70
2024/05/02 08:28:11;;;;;;;5.25;2.90;;;24.40;5.00;;;;;;5487139;26;20229;-70
2024/05/02 08:30:36;;;;;;;7.03;3.38;;;24.40;5.00;;;;;;5486950;26;20225;-70
2024/05/02 08:33:02;;;;;;;4.88;3.22;;;24.50;5.00;;;;;;5487021;26;20571;-71
2024/05/02 08:35:28;;;;;;;7.97;3.63;;;24.60;5.00;;;;;;5490317;26;20220;-70
2024/05/02 08:37:53;;;;;;;11.73;3.88;;;24.60;5.00;;;;;;5486117;26;20263;-70
2024/05/02 08:40:19;;;;;;;3.80;2.83;;;24.60;5.00;;;;;;5486449;26;20228;-70
2024/05/02 08:42:45;;;;;;;5.85;3.85;;;24.80;5.00;;;;;;5486790;26;20668;-71
2024/05/02 08:45:12;;;;;;;4.93;3.10;;;24.80;5.00;;;;;;5487010;26;20225;-71
2024/05/02 08:47:41;;;;;;;6.00;3.00;;;25.00;5.00;;;;;;5486648;26;20324;-70
2024/05/02 08:50:07;;;;;;;4.53;2.85;;;25.10;5.00;;;;;;5486447;26;20744;-70
2024/05/02 08:52:37;;;;;;;8.07;3.40;;;25.30;5.00;;;;;;5486334;26;20216;-71
2024/05/02 08:55:03;;;;;;;10.93;2.80;;;25.40;5.00;;;;;;5486596;26;20568;-70
2024/05/02 08:57:29;;;;;;;7.22;2.95;;;25.50;5.00;;;;;;5486796;26;20267;-68
2024/05/02 08:59:58;;;;;;;5.28;3.20;;;25.50;5.00;;;;;;5486649;26;20232;-69
2024/05/02 09:02:25;;;;;;;8.20;2.90;;;25.60;5.00;;;;;;5486611;26;20868;-73
2024/05/02 09:04:51;;;;;;;6.65;3.10;;;25.80;5.00;;;;;;5484372;26;20328;-72
2024/05/02 09:07:16;;;;;;;6.45;2.95;;;25.90;5.00;;;;;;5486171;26;20221;-73
2024/05/02 09:09:42;;;;;;;10.23;3.25;;;26.00;5.00;;;;;;5486050;26;20229;-73
2024/05/02 09:12:07;;;;;;;5.85;3.22;;;26.10;5.00;;;;;;5485628;26;20221;-73
2024/05/02 09:14:34;;;;;;;5.82;3.28;;;26.10;5.00;;;;;;5486281;26;20224;-73
2024/05/02 09:16:59;;;;;;;3.55;2.90;;;26.10;5.00;;;;;;5486018;26;20312;-73
2024/05/02 09:19:25;;;;;;;5.13;2.75;;;26.20;5.00;;;;;;5485955;26;20240;-72
2024/05/02 09:21:52;;;;;;;5.45;3.17;;;26.20;5.00;;;;;;5473348;21;20745;-69
2024/05/02 09:24:18;;;;;;;13.05;2.92;;;26.30;5.00;;;;;;5031073;26;9999926;-69
2024/05/02 09:26:44;;;;;;;6.95;2.70;;;26.30;5.00;;;;;;5381955;26;20279;-69
2024/05/02 09:29:10;;;;;;;6.85;3.00;;;26.30;5.00;;;;;;5347071;26;20661;-69
2024/05/02 09:31:37;;;;;;;5.20;2.40;;;26.30;5.00;;;;;;5378188;26;20247;-69
2024/05/02 09:34:04;;;;;;;5.10;2.70;;;26.50;5.00;;;;;;5377897;26;20274;-69
2024/05/02 09:36:31;;;;;;;9.57;3.28;;;26.60;5.00;;;;;;5382583;26;20234;-69
2024/05/02 09:39:05;;;;;;;6.15;2.53;;;26.60;5.00;;;;;;5394098;26;21153;-68
2024/05/02 09:41:32;;;;;;;5.05;2.83;;;26.80;5.00;;;;;;5394239;26;20251;-69
2024/05/02 09:44:08;;;;;;;8.07;2.85;;;26.90;5.00;;;;;;5412177;26;20281;-69
2024/05/02 09:46:34;;;;;;;5.43;2.72;;;26.90;5.00;;;;;;5412511;26;20230;-69
2024/05/02 09:49:01;;;;;;;2.53;2.20;;;27.00;5.00;;;;;;5412058;26;20223;-69
2024/05/02 09:51:29;;;;;;;4.22;2.50;;;27.00;5.00;;;;;;5381747;26;20580;-69
2024/05/02 09:53:56;;;;;;;5.72;2.85;;;27.00;5.00;;;;;;5413457;26;20218;-69
2024/05/02 09:56:24;;;;;;;5.82;2.47;;;27.00;5.00;;;;;;5413269;26;20253;-69
2024/05/02 09:58:53;;;;;;;6.47;2.90;;;27.10;5.00;;;;;;5412469;26;20264;-69
2024/05/02 10:01:21;;;;;;;4.53;2.22;;;27.20;5.00;;;;;;5413030;26;20607;-69
2024/05/02 10:03:47;;;;;;;3.55;2.50;;;27.10;5.00;;;;;;5412956;26;20766;-69
2024/05/02 10:06:13;;;;;;;11.80;2.80;;;27.10;5.00;;;;;;5412841;26;20254;-68
2024/05/02 10:08:39;;;;;;;9.77;2.60;;;27.20;5.00;;;;;;5411588;26;20230;-68
2024/05/02 10:11:15;;;;;;;5.53;2.50;;;27.20;5.00;;;;;;5381748;26;20307;-69
2024/05/02 10:13:53;;;;;;;4.05;2.53;;;27.00;5.00;;;;;;5412514;26;20615;-69
2024/05/02 10:16:21;;;;;;;5.57;2.63;;;27.00;5.00;;;;;;5412948;26;20804;-69
2024/05/02 10:18:51;;;;;;;7.57;2.83;;;27.10;5.00;;;;;;5412688;26;20215;-69
2024/05/02 10:21:21;;;;;;;4.43;3.08;;;27.10;5.00;;;;;;5412897;26;20647;-68
2024/05/02 10:23:47;;;;;;;2.53;2.13;;;27.00;5.00;;;;;;5411484;26;20235;-68
2024/05/02 10:26:12;;;;;;;5.05;2.60;;;27.00;5.00;;;;;;5412759;26;20332;-69
2024/05/02 10:28:38;;;;;;;3.10;2.67;;;27.00;5.00;;;;;;5413029;26;20340;-69
2024/05/02 10:31:08;;;;;;;8.07;3.13;;;27.00;5.00;;;;;;5413200;26;20691;-69
2024/05/02 10:33:35;;;;;;;6.15;2.65;;;27.20;5.00;;;;;;5379770;26;20586;-69
2024/05/02 10:36:01;;;;;;;9.90;2.33;;;27.20;5.00;;;;;;5411641;26;20265;-68
2024/05/02 10:38:31;;;;;;;2.88;2.38;;;27.20;5.00;;;;;;5412861;26;20227;-69
2024/05/02 10:40:57;;;;;;;2.95;2.17;;;27.20;5.00;;;;;;5412272;26;20234;-69
2024/05/02 10:43:24;;;;;;;6.70;2.78;;;27.30;5.00;;;;;;5381600;26;20227;-69
2024/05/02 10:45:49;;;;;;;8.32;2.47;;;27.40;5.00;;;;;;5381410;26;20223;-69
2024/05/02 10:48:15;;;;;;;9.73;2.10;;;27.50;5.00;;;;;;5412166;26;20281;-69
2024/05/02 10:50:41;;;;;;;4.85;2.30;;;27.50;5.00;;;;;;5411210;26;20273;-69
2024/05/02 10:53:07;;;;;;;6.05;2.10;;;27.50;5.00;;;;;;5412382;26;20246;-66
2024/05/02 10:55:33;;;;;;;6.47;1.83;;;27.40;5.00;;;;;;5411992;26;20261;-69
2024/05/02 10:57:58;;;;;;;5.63;2.38;;;27.40;5.00;;;;;;5412189;26;20222;-69
2024/05/02 11:00:25;;;;;;;6.55;2.25;;;27.40;5.00;;;;;;5380992;26;20292;-69
2024/05/02 11:02:51;;;;;;;7.78;2.45;;;27.50;5.00;;;;;;5380977;26;20304;-68
2024/05/02 11:05:18;;;;;;;7.07;1.98;;;27.60;5.00;;;;;;5412089;26;20223;-69
2024/05/02 11:07:43;;;;;;;6.47;2.30;;;27.60;5.00;;;;;;5412352;26;20223;-69
2024/05/02 11:10:15;;;;;;;7.70;1.85;;;27.80;5.00;;;;;;5412125;26;20331;-69
2024/05/02 11:12:41;;;;;;;3.85;2.00;;;27.90;5.00;;;;;;5412241;26;20279;-69
2024/05/02 11:15:08;;;;;;;6.55;3.10;;;28.00;5.00;;;;;;5411947;26;20222;-69
2024/05/02 11:17:34;;;;;;;3.33;2.33;;;28.00;5.00;;;;;;5411990;26;20316;-68
2024/05/02 11:20:01;;;;;;;5.82;2.20;;;28.00;5.00;;;;;;5411470;26;20234;-69
2024/05/02 11:22:26;;;;;;;5.28;2.03;;;28.00;5.00;;;;;;5412074;26;20243;-68
2024/05/02 11:24:56;;;;;;;5.95;2.17;;;27.90;5.00;;;;;;5410312;26;20219;-68
2024/05/02 11:27:22;;;;;;;4.18;2.22;;;27.80;5.00;;;;;;5411135;26;20730;-68
2024/05/02 11:29:48;;;;;;;4.68;1.70;;;27.70;5.00;;;;;;5411873;26;20227;-68
2024/05/02 11:32:14;;;;;;;5.18;2.10;;;27.40;5.00;;;;;;5380384;26;20647;-68
2024/05/02 11:34:39;;;;;;;9.77;1.98;;;27.40;5.00;;;;;;5410681;26;20619;-68
2024/05/02 11:37:05;;;;;;;2.00;1.90;;;27.30;5.00;;;;;;5411718;26;20223;-68
2024/05/02 11:39:31;;;;;;;6.30;1.80;;;27.40;5.00;;;;;;5411580;26;20844;-69
2024/05/02 11:41:57;;;;;;;9.77;2.17;;;27.40;5.00;;;;;;5411580;26;20243;-69
2024/05/02 11:44:22;;;;;;;7.13;2.65;;;27.30;5.00;;;;;;5380361;26;20274;-69
2024/05/02 11:46:48;;;;;;;7.25;2.13;;;27.30;5.00;;;;;;5411322;26;20270;-69
2024/05/02 11:49:13;;;;;;;3.15;2.10;;;27.20;5.00;;;;;;5411371;26;20642;-69
2024/05/02 11:51:39;;;;;;;3.40;1.90;;;27.20;5.00;;;;;;5411451;26;20962;-69
2024/05/02 11:54:08;;;;;;;5.10;2.78;;;27.20;5.00;;;;;;5411005;26;20230;-68
2024/05/02 11:56:33;;;;;;;10.50;2.10;;;27.10;5.00;;;;;;5379889;26;20226;-69
2024/05/02 11:58:59;;;;;;;4.63;2.10;;;27.10;5.00;;;;;;5411009;26;20219;-67
2024/05/02 12:01:27;;;;;;;6.20;2.42;;;27.10;5.00;;;;;;5411433;26;20247;-68
2024/05/02 12:03:53;;;;;;;6.53;2.20;;;27.10;5.00;;;;;;5401591;26;20219;-68
2024/05/02 12:06:19;;;;;;;5.80;2.00;;;27.20;5.00;;;;;;5376922;26;20239;-69
2024/05/02 12:08:44;;;;;;;6.47;2.47;;;27.10;5.00;;;;;;5411115;26;20715;-70
2024/05/02 12:11:10;;;;;;;7.18;2.80;;;27.20;5.00;;;;;;5424059;26;20312;-68
2024/05/02 12:13:35;;;;;;;3.90;2.20;;;27.10;5.00;;;;;;5431759;26;20289;-68
2024/05/02 12:16:01;;;;;;;7.53;2.15;;;27.20;5.00;;;;;;5446908;26;20646;-68
2024/05/02 12:18:26;;;;;;;7.90;2.40;;;27.20;5.00;;;;;;5447073;26;20222;-68
2024/05/02 12:20:52;;;;;;;10.07;2.00;;;27.10;5.00;;;;;;5446804;26;20603;-68
2024/05/02 12:23:17;;;;;;;5.15;2.30;;;27.10;5.00;;;;;;5447026;26;20307;-68
2024/05/02 12:25:43;;;;;;;3.88;2.13;;;27.00;5.00;;;;;;5446712;26;20214;-68
2024/05/02 12:28:09;;;;;;;9.70;2.40;;;27.00;5.00;;;;;;5447056;26;20233;-70
2024/05/02 12:30:34;;;;;;;3.88;1.98;;;27.00;5.00;;;;;;5446724;26;20238;-69
2024/05/02 12:33:00;;;;;;;7.65;2.00;;;27.10;5.00;;;;;;5414872;26;20237;-69
2024/05/02 12:35:26;;;;;;;2.33;1.98;;;27.10;5.00;;;;;;5446683;26;20214;-69
2024/05/02 12:37:52;;;;;;;6.63;2.20;;;27.20;5.00;;;;;;5446216;26;20222;-69
2024/05/02 12:40:17;;;;;;;4.30;2.03;;;27.20;5.00;;;;;;5446457;26;20609;-68
2024/05/02 12:42:47;;;;;;;2.28;2.08;;;27.10;5.00;;;;;;5446662;26;20229;-69
2024/05/02 12:45:13;;;;;;;5.05;2.10;;;27.20;5.00;;;;;;5446590;26;20256;-69
2024/05/02 12:47:38;;;;;;;4.20;1.92;;;27.20;5.00;;;;;;5449852;26;20706;-69